createdAt,value
2019-01-11T00:01:11.364Z,99173.48
2019-01-11T00:03:37.381Z,99165.28
2019-01-11T00:06:03.565Z,99168.20
2019-01-11T00:08:29.684Z,99164.05
2019-01-11T00:10:55.766Z,99174.43
2019-01-11T00:13:22.193Z,99196.77
2019-01-11T00:15:48.288Z,99229.68
2019-01-11T00:18:14.213Z,99200.19
2019-01-11T00:20:40.594Z,99172.92
2019-01-11T00:23:06.536Z,99170.78
2019-01-11T00:25:32.692Z,99168.32
2019-01-11T00:27:59.059Z,99173.20
2019-01-11T00:30:25.204Z,99178.58
2019-01-11T00:32:51.225Z,99197.63
2019-01-11T00:35:17.598Z,99194.23
2019-01-11T00:37:43.636Z,99195.27
2019-01-11T00:40:09.532Z,99199.23
2019-01-11T00:42:35.835Z,99193.55
2019-01-11T00:45:02.546Z,99191.87
2019-01-11T00:47:28.660Z,99208.25
2019-01-11T00:49:54.895Z,99186.31
2019-01-11T00:52:21.016Z,99198.19
2019-01-11T00:54:46.904Z,99186.77
2019-01-11T00:57:13.015Z,99186.31
2019-01-11T00:59:39.139Z,99196.56
2019-01-11T01:02:05.030Z,99190.45
2019-01-11T01:04:31.224Z,99191.38
2019-01-11T01:06:57.334Z,99200.23
2019-01-11T01:09:23.433Z,99194.10
2019-01-11T01:11:49.628Z,99224.82
2019-01-11T01:14:15.730Z,99211.26
2019-01-11T01:16:41.665Z,99185.67
2019-01-11T01:19:08.067Z,99210.98
2019-01-11T01:21:34.116Z,99205.79
2019-01-11T01:24:00.133Z,99219.91
2019-01-11T01:26:26.284Z,99198.80
2019-01-11T01:28:52.300Z,99215.20
2019-01-11T01:31:18.214Z,99206.89
2019-01-11T01:33:44.321Z,99203.42
2019-01-11T01:36:10.481Z,99201.70
2019-01-11T01:38:36.524Z,99203.11
2019-01-11T01:41:02.824Z,99213.39
2019-01-11T01:43:28.761Z,99211.70
2019-01-11T01:45:54.763Z,99210.93
2019-01-11T01:48:21.044Z,99214.52
2019-01-11T01:50:47.044Z,99207.16
2019-01-11T01:53:13.041Z,99220.52
2019-01-11T01:55:39.353Z,99203.92
2019-01-11T01:58:05.533Z,99208.46
2019-01-11T02:00:31.674Z,99198.45
2019-01-11T02:02:57.933Z,99202.96
2019-01-11T02:05:24.044Z,99181.00
2019-01-11T02:07:50.080Z,99175.45
2019-01-11T02:10:16.379Z,99173.08
2019-01-11T02:12:42.462Z,99171.66
2019-01-11T02:15:09.506Z,99177.11
2019-01-11T02:17:35.769Z,99189.16
2019-01-11T02:20:03.179Z,99190.56
2019-01-11T02:22:29.172Z,99180.47
2019-01-11T02:24:55.366Z,99179.42
2019-01-11T02:27:21.488Z,99182.69
2019-01-11T02:29:47.406Z,99178.91
2019-01-11T02:32:13.580Z,99173.36
2019-01-11T02:34:39.577Z,99175.67
2019-01-11T02:37:05.592Z,99173.70
2019-01-11T02:39:31.704Z,99174.70
2019-01-11T02:41:57.966Z,99165.38
2019-01-11T02:44:23.992Z,99152.83
2019-01-11T02:46:50.047Z,99148.14
2019-01-11T02:49:16.077Z,99137.77
2019-01-11T02:51:42.093Z,99142.27
2019-01-11T02:54:08.330Z,99147.71
2019-01-11T02:56:34.360Z,99153.44
2019-01-11T02:59:00.371Z,99144.39
2019-01-11T03:01:26.457Z,99145.34
2019-01-11T03:03:52.357Z,99133.66
2019-01-11T03:06:18.374Z,99132.87
2019-01-11T03:08:44.535Z,99131.11
2019-01-11T03:11:10.646Z,99130.25
2019-01-11T03:13:36.566Z,99121.02
2019-01-11T03:16:02.933Z,99116.80
2019-01-11T03:18:28.969Z,99106.88
2019-01-11T03:20:55.086Z,99111.87
2019-01-11T03:23:21.245Z,99116.27
2019-01-11T03:25:47.159Z,99116.82
2019-01-11T03:28:13.070Z,99100.27
2019-01-11T03:30:39.310Z,99085.70
2019-01-11T03:33:05.649Z,99085.02
2019-01-11T03:35:31.594Z,99086.87
2019-01-11T03:37:57.771Z,99081.41
2019-01-11T03:40:24.463Z,99067.78
2019-01-11T03:42:50.521Z,99063.92
2019-01-11T03:45:18.732Z,99064.06
2019-01-11T03:47:44.856Z,99059.23
2019-01-11T03:50:13.159Z,99060.80
2019-01-11T03:52:39.270Z,99065.02
2019-01-11T03:55:08.375Z,99054.00
2019-01-11T03:57:34.372Z,99055.16
2019-01-11T04:00:00.698Z,99060.69
2019-01-11T04:02:26.811Z,99060.86
2019-01-11T04:04:52.696Z,99043.38
2019-01-11T04:07:19.057Z,99042.98
2019-01-11T04:09:45.052Z,99041.74
2019-01-11T04:12:10.980Z,99022.95
2019-01-11T04:14:37.273Z,99008.28
2019-01-11T04:17:03.463Z,99014.16
2019-01-11T04:19:29.381Z,99005.21
2019-01-11T04:21:57.481Z,99008.09
2019-01-11T04:24:24.828Z,98998.20
2019-01-11T04:26:50.732Z,99005.41
2019-01-11T04:29:16.948Z,98998.08
2019-01-11T04:31:42.988Z,98995.99
2019-01-11T04:34:08.922Z,98990.27
2019-01-11T04:36:35.129Z,98988.47
2019-01-11T04:39:01.119Z,98990.27
2019-01-11T04:41:27.030Z,98987.07
2019-01-11T04:43:53.322Z,98986.94
2019-01-11T04:46:19.241Z,98983.53
2019-01-11T04:48:45.567Z,98973.09
2019-01-11T04:51:11.727Z,98963.97
2019-01-11T04:53:37.843Z,98962.66
2019-01-11T04:56:03.951Z,98963.48
2019-01-11T04:58:30.035Z,98954.85
2019-01-11T05:00:56.047Z,98959.80
2019-01-11T05:03:21.949Z,98956.79
2019-01-11T05:05:48.046Z,98945.98
2019-01-11T05:08:14.169Z,98939.17
2019-01-11T05:10:40.097Z,98932.77
2019-01-11T05:13:16.833Z,98933.03
2019-01-11T05:15:42.752Z,98914.70
2019-01-11T05:18:08.690Z,98909.16
2019-01-11T05:20:34.729Z,98913.81
2019-01-11T05:23:00.761Z,98912.59
2019-01-11T05:25:27.583Z,98901.70
2019-01-11T05:27:53.887Z,98902.70
2019-01-11T05:30:20.854Z,98883.06
2019-01-11T05:32:46.767Z,98881.37
2019-01-11T05:35:13.003Z,98876.98
2019-01-11T05:37:39.127Z,98870.06
2019-01-11T05:40:11.226Z,98860.61
2019-01-11T05:42:37.420Z,98861.66
2019-01-11T05:45:05.158Z,98858.77
2019-01-11T05:47:31.053Z,98850.63
2019-01-11T05:49:57.106Z,98846.88
2019-01-11T05:52:23.109Z,98835.34
2019-01-11T05:54:49.122Z,98829.83
2019-01-11T05:57:15.368Z,98851.61
2019-01-11T05:59:41.411Z,98825.98
2019-01-11T06:02:07.335Z,98828.06
2019-01-11T06:04:35.512Z,98820.00
2019-01-11T06:07:09.332Z,98826.02
2019-01-11T06:09:35.231Z,98823.67
2019-01-11T06:12:01.316Z,98805.63
2019-01-11T06:14:27.220Z,98802.91
2019-01-11T06:16:53.171Z,98798.05
2019-01-11T06:19:19.340Z,98793.15
2019-01-11T06:21:45.241Z,98777.82
2019-01-11T06:24:11.173Z,98777.45
2019-01-11T06:26:38.860Z,98762.03
2019-01-11T06:29:04.842Z,98748.97
2019-01-11T06:31:30.842Z,98751.23
2019-01-11T06:33:56.827Z,98759.22
2019-01-11T06:36:22.748Z,98743.80
2019-01-11T06:38:48.784Z,98740.34
2019-01-11T06:41:15.020Z,98730.64
2019-01-11T06:43:40.938Z,98730.19
2019-01-11T06:46:09.685Z,98727.46
2019-01-11T06:48:37.060Z,98731.41
2019-01-11T06:51:03.187Z,98732.27
2019-01-11T06:53:29.296Z,98747.56
2019-01-11T06:55:55.392Z,98719.48
2019-01-11T06:58:21.385Z,98715.89
2019-01-11T07:00:47.301Z,98699.66
2019-01-11T07:03:13.525Z,98687.35
2019-01-11T07:05:39.533Z,98684.99
2019-01-11T07:08:05.435Z,98680.19
2019-01-11T07:10:31.587Z,98668.75
2019-01-11T07:12:57.590Z,98642.44
2019-01-11T07:15:23.598Z,98644.02
2019-01-11T07:17:49.780Z,98641.66
2019-01-11T07:20:15.672Z,98636.20
2019-01-11T07:22:41.879Z,98629.27
2019-01-11T07:25:10.107Z,98646.18
2019-01-11T07:27:38.008Z,98628.61
2019-01-11T07:30:12.388Z,98627.66
2019-01-11T07:32:38.408Z,98634.24
2019-01-11T07:35:04.748Z,98605.69
2019-01-11T07:37:30.993Z,98619.67
2019-01-11T07:39:57.037Z,98608.95
2019-01-11T07:42:22.929Z,98586.39
2019-01-11T07:44:49.108Z,98591.27
2019-01-11T07:47:15.017Z,98586.20
2019-01-11T07:49:43.012Z,98586.00
2019-01-11T07:52:09.398Z,98605.55
2019-01-11T07:54:35.298Z,98593.11
2019-01-11T07:57:01.328Z,98576.30
2019-01-11T07:59:27.509Z,98584.83
2019-01-11T08:01:53.505Z,98578.44
2019-01-11T08:04:19.520Z,98569.02
2019-01-11T08:06:46.017Z,98564.02
2019-01-11T08:09:12.153Z,98552.56
2019-01-11T08:11:38.232Z,98562.50
2019-01-11T08:14:04.858Z,98567.67
2019-01-11T08:16:30.765Z,98563.25
2019-01-11T08:18:56.690Z,98554.30
2019-01-11T08:21:22.782Z,98552.42
2019-01-11T08:23:48.781Z,98568.13
2019-01-11T08:26:14.687Z,98563.51
2019-01-11T08:28:40.819Z,98553.33
2019-01-11T08:31:06.912Z,98559.62
2019-01-11T08:33:33.227Z,98562.05
2019-01-11T08:35:59.826Z,98547.00
2019-01-11T08:38:25.843Z,98539.25
2019-01-11T08:40:51.750Z,98571.52
2019-01-11T08:43:17.850Z,98573.59
2019-01-11T08:45:43.888Z,98602.73
2019-01-11T08:48:10.004Z,98571.77
2019-01-11T08:50:36.058Z,98572.38
2019-01-11T08:53:02.189Z,98575.20
2019-01-11T08:55:28.408Z,98553.52
2019-01-11T08:57:54.508Z,98556.91
2019-01-11T09:00:20.627Z,98553.61
2019-01-11T09:02:46.646Z,98542.96
2019-01-11T09:05:12.937Z,98552.44
2019-01-11T09:07:39.139Z,98543.97
2019-01-11T09:10:08.864Z,98547.35
2019-01-11T09:12:35.039Z,98542.44
2019-01-11T09:15:01.066Z,98547.04
2019-01-11T09:17:27.068Z,98546.94
2019-01-11T09:19:53.263Z,98530.16
2019-01-11T09:22:19.256Z,98520.72
2019-01-11T09:24:45.301Z,98521.58
2019-01-11T09:27:11.677Z,98512.70
2019-01-11T09:29:37.743Z,98521.36
2019-01-11T09:32:03.868Z,98529.17
2019-01-11T09:34:30.157Z,98509.28
2019-01-11T09:36:56.225Z,98521.51
2019-01-11T09:39:22.220Z,98524.89
2019-01-11T09:41:48.448Z,98531.84
2019-01-11T09:44:14.490Z,98528.64
2019-01-11T09:46:40.534Z,98518.84
2019-01-11T09:49:06.683Z,98499.66
2019-01-11T09:51:32.563Z,98514.92
2019-01-11T09:53:58.619Z,98508.22
2019-01-11T09:56:24.704Z,98499.73
2019-01-11T09:58:50.600Z,98513.28
2019-01-11T10:01:16.732Z,98514.14
2019-01-11T10:03:42.791Z,98515.70
2019-01-11T10:06:08.896Z,98503.73
2019-01-11T10:08:34.811Z,98517.77
2019-01-11T10:11:01.202Z,98508.54
2019-01-11T10:13:27.090Z,98502.20
2019-01-11T10:15:52.990Z,98502.09
2019-01-11T10:18:19.260Z,98488.32
2019-01-11T10:20:45.145Z,98476.59
2019-01-11T10:23:11.180Z,98462.55
2019-01-11T10:25:37.393Z,98488.71
2019-01-11T10:28:03.502Z,98474.09
2019-01-11T10:30:29.408Z,98478.91
2019-01-11T10:32:55.775Z,98474.37
2019-01-11T10:35:21.892Z,98475.94
2019-01-11T10:37:47.796Z,98469.23
2019-01-11T10:40:15.910Z,98466.02
2019-01-11T10:42:42.232Z,98466.02
2019-01-11T10:45:11.559Z,98417.89
2019-01-11T10:47:37.649Z,98466.27
2019-01-11T10:50:07.389Z,98436.77
2019-01-11T10:52:33.392Z,98455.13
2019-01-11T10:54:59.549Z,98453.70
2019-01-11T10:57:25.563Z,98455.02
2019-01-11T10:59:51.564Z,98440.39
2019-01-11T11:02:17.754Z,98438.61
2019-01-11T11:04:43.674Z,98450.48
2019-01-11T11:07:09.609Z,98463.79
2019-01-11T11:09:35.712Z,98439.92
2019-01-11T11:12:01.870Z,98432.01
2019-01-11T11:14:27.978Z,98425.66
2019-01-11T11:16:53.972Z,98433.58
2019-01-11T11:19:20.718Z,98431.67
2019-01-11T11:21:46.717Z,98425.44
2019-01-11T11:24:12.905Z,98421.83
2019-01-11T11:26:38.906Z,98388.50
2019-01-11T11:29:05.046Z,98418.14
2019-01-11T11:31:31.266Z,98419.47
2019-01-11T11:33:57.273Z,98419.35
2019-01-11T11:36:23.201Z,98410.00
2019-01-11T11:38:49.379Z,98429.30
2019-01-11T11:41:15.308Z,98402.32
2019-01-11T11:43:41.318Z,98398.72
2019-01-11T11:46:07.588Z,98403.92
2019-01-11T11:48:33.489Z,98404.27
2019-01-11T11:50:59.442Z,98395.38
2019-01-11T11:53:25.724Z,98399.34
2019-01-11T11:55:51.704Z,98394.06
2019-01-11T11:58:17.750Z,98378.72
2019-01-11T12:00:44.111Z,98399.84
2019-01-11T12:03:09.993Z,98384.00
2019-01-11T12:05:36.040Z,98409.91
2019-01-11T12:08:02.414Z,98386.53
2019-01-11T12:10:28.339Z,98374.65
2019-01-11T12:12:54.220Z,98378.61
2019-01-11T12:15:20.537Z,98392.63
2019-01-11T12:17:46.519Z,98361.34
2019-01-11T12:20:25.431Z,98384.98
2019-01-11T12:22:51.684Z,98386.77
2019-01-11T12:25:17.571Z,98375.63
2019-01-11T12:27:43.780Z,98383.05
2019-01-11T12:30:12.589Z,98386.08
2019-01-11T12:32:38.512Z,98371.91
2019-01-11T12:35:05.129Z,98368.30
2019-01-11T12:37:31.033Z,98358.01
2019-01-11T12:39:57.058Z,98370.13
2019-01-11T12:42:23.246Z,98351.53
2019-01-11T12:44:49.276Z,98357.16
2019-01-11T12:47:15.419Z,98379.03
2019-01-11T12:49:41.503Z,98377.36
2019-01-11T12:52:07.504Z,98368.94
2019-01-11T12:54:33.426Z,98378.17
2019-01-11T12:56:59.492Z,98376.73
2019-01-11T12:59:25.428Z,98357.91
2019-01-11T13:01:51.447Z,98346.87
2019-01-11T13:04:17.804Z,98367.50
2019-01-11T13:06:43.728Z,98357.78
2019-01-11T13:09:09.766Z,98368.81
2019-01-11T13:11:35.955Z,98368.34
2019-01-11T13:14:02.075Z,98357.31
2019-01-11T13:16:27.973Z,98371.95
2019-01-11T13:18:54.149Z,98359.69
2019-01-11T13:21:20.028Z,98371.11
2019-01-11T13:23:46.170Z,98364.16
2019-01-11T13:26:12.519Z,98379.50
2019-01-11T13:28:38.476Z,98350.56
2019-01-11T13:31:04.457Z,98357.55
2019-01-11T13:33:30.632Z,98362.45
2019-01-11T13:35:56.649Z,98340.85
2019-01-11T13:38:22.667Z,98359.34
2019-01-11T13:40:48.847Z,98363.30
2019-01-11T13:43:14.934Z,98376.86
2019-01-11T13:45:41.058Z,98382.64
2019-01-11T13:48:07.588Z,98355.61
2019-01-11T13:50:35.486Z,98358.75
2019-01-11T13:53:01.583Z,98368.00
2019-01-11T13:55:27.867Z,98377.23
2019-01-11T13:57:53.847Z,98375.06
2019-01-11T14:00:19.889Z,98385.28
2019-01-11T14:02:46.139Z,98376.97
2019-01-11T14:05:12.382Z,98379.61
2019-01-11T14:07:38.375Z,98400.73
2019-01-11T14:10:05.225Z,98389.82
2019-01-11T14:12:31.143Z,98409.16
2019-01-11T14:14:57.038Z,98436.88
2019-01-11T14:17:23.229Z,98425.94
2019-01-11T14:19:49.129Z,98452.84
2019-01-11T14:22:15.143Z,98438.78
2019-01-11T14:24:41.289Z,98468.80
2019-01-11T14:27:07.232Z,98441.89
2019-01-11T14:29:33.242Z,98439.86
2019-01-11T14:31:59.299Z,98467.20
2019-01-11T14:34:25.413Z,98461.56
2019-01-11T14:36:51.405Z,98497.33
2019-01-11T14:39:17.633Z,98468.75
2019-01-11T14:41:44.061Z,98475.95
2019-01-11T14:44:10.384Z,98501.97
2019-01-11T14:46:36.562Z,98503.79
2019-01-11T14:49:02.535Z,98528.02
2019-01-11T14:51:28.561Z,98510.86
2019-01-11T14:53:54.765Z,98527.05
2019-01-11T14:56:20.888Z,98527.05
2019-01-11T14:58:46.875Z,98539.90
2019-01-11T15:01:13.238Z,98525.73
2019-01-11T15:03:39.143Z,98542.08
2019-01-11T15:06:05.266Z,98540.36
2019-01-11T15:08:31.470Z,98552.00
2019-01-11T15:10:57.474Z,98561.13
2019-01-11T15:13:23.481Z,98565.20
2019-01-11T15:15:49.708Z,98567.48
2019-01-11T15:18:15.727Z,98572.27
2019-01-11T15:20:41.736Z,98592.06
2019-01-11T15:23:13.343Z,98579.72
2019-01-11T15:25:35.656Z,98600.73
2019-01-11T15:28:01.554Z,98587.45
2019-01-11T15:30:27.656Z,98602.58
2019-01-11T15:32:53.575Z,98603.05
2019-01-11T15:35:19.597Z,98604.83
2019-01-11T15:37:45.805Z,98618.03
2019-01-11T15:40:20.529Z,98639.66
2019-01-11T15:42:46.707Z,98617.57
2019-01-11T15:45:12.850Z,98659.45
2019-01-11T15:47:39.264Z,98648.40
2019-01-11T15:50:12.035Z,98654.53
2019-01-11T15:52:37.958Z,98654.53
2019-01-11T15:55:07.181Z,98693.19
2019-01-11T15:57:42.149Z,98668.59
2019-01-11T16:00:19.089Z,98664.14
2019-01-11T16:02:45.141Z,98691.39
2019-01-11T16:05:11.081Z,98695.92
2019-01-11T16:07:37.198Z,98712.27
2019-01-11T16:10:07.011Z,98708.41
2019-01-11T16:12:32.916Z,98725.08
2019-01-11T16:15:19.471Z,98729.53
2019-01-11T16:17:45.363Z,98717.16
2019-01-11T16:20:11.577Z,98732.28
2019-01-11T16:22:39.714Z,98745.95
2019-01-11T16:25:08.092Z,98741.02
2019-01-11T16:27:34.194Z,98748.12
2019-01-11T16:30:00.506Z,98746.41
2019-01-11T16:32:26.344Z,98761.43
2019-01-11T16:34:52.357Z,98763.22
2019-01-11T16:37:18.695Z,98759.61
2019-01-11T16:39:44.741Z,98774.13
2019-01-11T16:42:10.635Z,98767.17
2019-01-11T16:44:36.651Z,98769.45
2019-01-11T16:47:02.685Z,98779.63
2019-01-11T16:49:28.692Z,98791.90
2019-01-11T16:51:54.723Z,98797.54
2019-01-11T16:54:20.876Z,98794.80
2019-01-11T16:56:46.781Z,98792.52
2019-01-11T16:59:13.032Z,98794.23
2019-01-11T17:01:39.167Z,98796.37
2019-01-11T17:04:05.371Z,98813.43
2019-01-11T17:06:32.031Z,98816.93
2019-01-11T17:08:58.056Z,98819.20
2019-01-11T17:11:24.173Z,98831.09
2019-01-11T17:13:50.331Z,98840.80
2019-01-11T17:16:16.599Z,98836.94
2019-01-11T17:18:42.529Z,98851.10
2019-01-11T17:21:08.925Z,98850.34
2019-01-11T17:23:34.925Z,98851.30
2019-01-11T17:26:00.834Z,98858.00
2019-01-11T17:28:26.861Z,98872.53
2019-01-11T17:30:52.814Z,98886.55
2019-01-11T17:33:18.897Z,98886.19
2019-01-11T17:35:44.969Z,98894.21
2019-01-11T17:38:11.023Z,98890.72
2019-01-11T17:40:36.896Z,98892.50
2019-01-11T17:43:03.116Z,98898.27
2019-01-11T17:45:29.160Z,98906.66
2019-01-11T17:47:55.054Z,98916.00
2019-01-11T17:50:21.184Z,98923.45
2019-01-11T17:52:47.302Z,98925.59
2019-01-11T17:55:13.314Z,98923.81
2019-01-11T17:57:39.530Z,98935.33
2019-01-11T18:00:11.914Z,98935.44
2019-01-11T18:02:37.900Z,98926.56
2019-01-11T18:05:06.411Z,98942.40
2019-01-11T18:07:32.426Z,98944.67
2019-01-11T18:09:58.519Z,98951.53
2019-01-11T18:12:24.592Z,98952.95
2019-01-11T18:14:50.520Z,98967.48
2019-01-11T18:17:16.415Z,98969.26
2019-01-11T18:19:42.536Z,98961.83
2019-01-11T18:22:08.528Z,98967.48
2019-01-11T18:24:34.529Z,98985.59
2019-01-11T18:27:00.637Z,98974.54
2019-01-11T18:29:26.662Z,98982.09
2019-01-11T18:31:52.645Z,98966.02
2019-01-11T18:34:18.925Z,99004.17
2019-01-11T18:36:44.982Z,98992.85
2019-01-11T18:39:10.879Z,98994.53
2019-01-11T18:41:37.741Z,99004.27
2019-01-11T18:44:03.844Z,98989.84
2019-01-11T18:46:29.883Z,99011.80
2019-01-11T18:48:55.945Z,99007.93
2019-01-11T18:51:21.887Z,99018.59
2019-01-11T18:53:47.993Z,99023.41
2019-01-11T18:56:14.178Z,99032.28
2019-01-11T18:58:40.070Z,99041.61
2019-01-11T19:01:06.143Z,99040.75
2019-01-11T19:03:32.339Z,99044.25
2019-01-11T19:05:58.268Z,99050.45
2019-01-11T19:08:24.290Z,99038.58
2019-01-11T19:10:50.453Z,99070.25
2019-01-11T19:13:16.360Z,99053.29
2019-01-11T19:15:42.287Z,99077.14
2019-01-11T19:18:08.501Z,99083.27
2019-01-11T19:20:34.554Z,99084.59
2019-01-11T19:23:00.615Z,99074.13
2019-01-11T19:25:27.026Z,99092.70
2019-01-11T19:27:52.908Z,99101.17
2019-01-11T19:30:23.823Z,99099.95
2019-01-11T19:32:50.153Z,99098.73
2019-01-11T19:35:16.233Z,99098.82
2019-01-11T19:37:42.260Z,99109.87
2019-01-11T19:40:10.960Z,99108.64
2019-01-11T19:42:37.100Z,99113.06
2019-01-11T19:45:06.597Z,99122.39
2019-01-11T19:47:32.897Z,99126.05
2019-01-11T19:49:58.902Z,99117.39
2019-01-11T19:52:24.921Z,99129.45
2019-01-11T19:54:51.205Z,99136.23
2019-01-11T19:57:17.115Z,99139.52
2019-01-11T19:59:43.141Z,99146.20
2019-01-11T20:02:09.417Z,99140.56
2019-01-11T20:04:35.328Z,99154.67
2019-01-11T20:07:01.497Z,99160.44
2019-01-11T20:09:27.761Z,99163.16
2019-01-11T20:11:53.784Z,99166.72
2019-01-11T20:14:19.843Z,99167.30
2019-01-11T20:16:46.042Z,99173.13
2019-01-11T20:19:12.405Z,99176.72
2019-01-11T20:21:38.503Z,99178.49
2019-01-11T20:24:04.737Z,99191.77
2019-01-11T20:26:30.712Z,99141.47
2019-01-11T20:28:56.843Z,99211.91
2019-01-11T20:31:23.142Z,99186.86
2019-01-11T20:33:49.251Z,99188.63
2019-01-11T20:36:15.285Z,99190.50
2019-01-11T20:38:41.447Z,99202.45
2019-01-11T20:41:07.362Z,99207.45
2019-01-11T20:43:34.392Z,99217.31
2019-01-11T20:46:03.384Z,99219.50
2019-01-11T20:48:28.576Z,99223.54
2019-01-11T20:50:54.488Z,99227.59
2019-01-11T20:53:20.650Z,99225.31
2019-01-11T20:55:46.578Z,99225.41
2019-01-11T20:58:12.664Z,99235.95
2019-01-11T21:00:39.134Z,99239.17
2019-01-11T21:03:05.359Z,99237.84
2019-01-11T21:05:31.551Z,99240.08
2019-01-11T21:07:57.968Z,99249.31
2019-01-11T21:10:24.167Z,99239.34
2019-01-11T21:12:50.169Z,99249.89
2019-01-11T21:15:21.214Z,99249.11
2019-01-11T21:17:47.385Z,99255.33
2019-01-11T21:20:15.291Z,99268.69
2019-01-11T21:22:41.861Z,99261.78
2019-01-11T21:25:10.244Z,99259.23
2019-01-11T21:27:36.268Z,99259.31
2019-01-11T21:30:05.929Z,99262.04
2019-01-11T21:32:31.836Z,99266.94
2019-01-11T21:34:57.785Z,99258.71
2019-01-11T21:37:23.750Z,99262.75
2019-01-11T21:39:49.733Z,99269.05
2019-01-11T21:42:19.225Z,99278.36
2019-01-11T21:44:43.718Z,99282.86
2019-01-11T21:47:09.738Z,99281.55
2019-01-11T21:49:35.644Z,99294.35
2019-01-11T21:52:01.759Z,99288.70
2019-01-11T21:54:27.640Z,99283.44
2019-01-11T21:56:53.693Z,99286.53
2019-01-11T21:59:19.893Z,99293.57
2019-01-11T22:01:45.782Z,99292.83
2019-01-11T22:04:11.804Z,99292.05
2019-01-11T22:06:37.876Z,99297.32
2019-01-11T22:09:06.343Z,99293.91
2019-01-11T22:11:32.371Z,99295.72
2019-01-11T22:13:58.529Z,99302.39
2019-01-11T22:16:24.439Z,99295.02
2019-01-11T22:18:50.350Z,99292.92
2019-01-11T22:21:16.529Z,99307.50
2019-01-11T22:23:42.431Z,99305.44
2019-01-11T22:26:08.566Z,99310.30
2019-01-11T22:28:34.855Z,99303.59
2019-01-11T22:31:00.852Z,99321.17
2019-01-11T22:33:26.860Z,99323.89
2019-01-11T22:35:53.059Z,99323.11
2019-01-11T22:38:18.998Z,99330.18
2019-01-11T22:40:44.980Z,99321.05
2019-01-11T22:43:11.153Z,99325.16
2019-01-11T22:45:37.052Z,99328.25
2019-01-11T22:48:03.145Z,99329.27
2019-01-11T22:50:29.277Z,99322.36
2019-01-11T22:52:55.179Z,99336.02
2019-01-11T22:55:21.104Z,99336.55
2019-01-11T22:57:47.228Z,99334.86
2019-01-11T23:00:43.833Z,99350.66
2019-01-11T23:03:16.827Z,99339.72
2019-01-11T23:05:43.054Z,99338.48
2019-01-11T23:08:11.280Z,99342.52
2019-01-11T23:10:44.092Z,99342.59
2019-01-11T23:13:10.108Z,99345.72
2019-01-11T23:15:36.169Z,99343.17
2019-01-11T23:18:02.583Z,99358.56
2019-01-11T23:20:28.560Z,99350.73
2019-01-11T23:22:54.588Z,99343.00
2019-01-11T23:25:20.694Z,99334.80
2019-01-11T23:27:46.632Z,99337.11
2019-01-11T23:30:15.054Z,99336.36
2019-01-11T23:32:41.458Z,99336.81
2019-01-11T23:35:07.474Z,99340.84
2019-01-11T23:37:33.465Z,99342.23
2019-01-11T23:39:59.633Z,99345.33
2019-01-11T23:42:25.650Z,99356.02
2019-01-11T23:44:51.582Z,99360.91
2019-01-11T23:47:17.768Z,99359.59
2019-01-11T23:49:43.704Z,99354.40
2019-01-11T23:52:09.611Z,99358.88
2019-01-11T23:54:35.772Z,99360.77
2019-01-11T23:57:01.897Z,99356.81
2019-01-11T23:59:27.901Z,99364.30
